Time;durP1;ratioP1;P1;durP2;ratioP2;P2;SDS_P1;SDS_P2;PMS_P1;PMS_P2;Temp;Humidity;BMP_temperature;BMP_pressure;BME280_temperature;BME280_humidity;BME280_pressure;Samples;Min_cycle;Max_cycle;Signal;HPM_P1;HPM_P2
2023/12/09 00:00:14;;;;;;;81.82;31.60;;;;;;;;;;4909855;29;20054;-80
2023/12/09 00:02:40;;;;;;;87.38;31.08;;;;;;;;;;4910114;29;20509;-79
2023/12/09 00:05:06;;;;;;;87.72;32.40;;;;;;;;;;4913216;29;20090;-81
2023/12/09 00:07:32;;;;;;;83.95;29.42;;;;;;;;;;4910655;29;20044;-82
2023/12/09 00:09:58;;;;;;;69.45;28.63;;;;;;;;;;4907707;29;20040;-83
2023/12/09 00:12:24;;;;;;;81.28;31.77;;;;;;;;;;4913049;29;20059;-86
2023/12/09 00:14:50;;;;;;;71.05;29.10;;;;;;;;;;4905098;29;20096;-83
2023/12/09 00:17:16;;;;;;;62.70;28.77;;;;;;;;;;4917689;29;20044;-81
2023/12/09 00:19:42;;;;;;;56.58;25.77;;;;;;;;;;4931505;29;20545;-76
2023/12/09 00:22:08;;;;;;;83.57;30.23;;;;;;;;;;4918259;29;20055;-79
2023/12/09 00:24:34;;;;;;;78.78;30.20;;;;;;;;;;4913817;29;20475;-78
2023/12/09 00:27:00;;;;;;;59.63;25.65;;;;;;;;;;4912606;29;20043;-76
2023/12/09 00:29:29;;;;;;;77.00;31.77;;;;;;;;;;4913806;29;20067;-79
2023/12/09 00:31:55;;;;;;;79.93;31.33;;;;;;;;;;4913129;29;20044;-78
2023/12/09 00:34:21;;;;;;;87.15;29.02;;;;;;;;;;4915546;29;20043;-77
2023/12/09 00:36:50;;;;;;;83.78;31.90;;;;;;;;;;4906662;29;20453;-78
2023/12/09 00:39:16;;;;;;;76.68;30.13;;;;;;;;;;4905959;29;20043;-77
2023/12/09 00:41:42;;;;;;;85.25;30.17;;;;;;;;;;4931125;29;20048;-77
2023/12/09 00:44:08;;;;;;;83.03;31.52;;;;;;;;;;4909854;29;20048;-77
2023/12/09 00:46:34;;;;;;;76.78;30.77;;;;;;;;;;4917850;29;20039;-77
2023/12/09 00:49:00;;;;;;;86.68;29.75;;;;;;;;;;4934109;29;20400;-77
2023/12/09 00:51:26;;;;;;;76.65;29.48;;;;;;;;;;4927080;29;20443;-77
2023/12/09 00:53:52;;;;;;;83.70;30.73;;;;;;;;;;4919849;29;20047;-77
2023/12/09 00:56:18;;;;;;;79.28;30.52;;;;;;;;;;4922963;29;20052;-76
2023/12/09 00:58:44;;;;;;;77.00;29.30;;;;;;;;;;4909089;29;20103;-77
2023/12/09 01:01:13;;;;;;;75.13;30.20;;;;;;;;;;4912085;29;20401;-77
2023/12/09 01:03:42;;;;;;;64.13;27.30;;;;;;;;;;4925206;29;20056;-77
2023/12/09 01:06:08;;;;;;;82.20;30.00;;;;;;;;;;4920142;29;20048;-76
2023/12/09 01:08:34;;;;;;;70.47;27.55;;;;;;;;;;4912632;29;20536;-77
2023/12/09 01:11:00;;;;;;;68.68;29.20;;;;;;;;;;4934347;29;20504;-75
2023/12/09 01:13:28;;;;;;;71.13;29.27;;;;;;;;;;4934779;29;20433;-75
2023/12/09 01:15:54;;;;;;;76.20;30.15;;;;;;;;;;4909615;29;20433;-75
2023/12/09 01:18:20;;;;;;;59.53;26.77;;;;;;;;;;4909337;29;20055;-74
2023/12/09 01:20:46;;;;;;;56.10;24.42;;;;;;;;;;4911529;29;20047;-74
2023/12/09 01:23:13;;;;;;;60.75;26.90;;;;;;;;;;4911933;29;20049;-74
2023/12/09 01:25:39;;;;;;;63.20;26.60;;;;;;;;;;4912912;29;20063;-74
2023/12/09 01:28:05;;;;;;;65.35;25.95;;;;;;;;;;4933227;29;20491;-74
2023/12/09 01:30:31;;;;;;;59.83;27.42;;;;;;;;;;4933026;29;20404;-74
2023/12/09 01:32:57;;;;;;;74.75;29.95;;;;;;;;;;4913290;29;20043;-75
2023/12/09 01:35:23;;;;;;;71.65;26.92;;;;;;;;;;4917894;29;20047;-75
2023/12/09 01:37:49;;;;;;;76.32;29.95;;;;;;;;;;4912670;29;20083;-74
2023/12/09 01:40:17;;;;;;;66.68;27.35;;;;;;;;;;4911895;29;20104;-74
2023/12/09 01:42:44;;;;;;;72.38;27.85;;;;;;;;;;4918778;29;20055;-75
2023/12/09 01:45:10;;;;;;;60.65;26.17;;;;;;;;;;4927546;29;20044;-74
2023/12/09 01:47:37;;;;;;;69.32;26.45;;;;;;;;;;4926244;29;20073;-74
2023/12/09 01:50:04;;;;;;;64.38;25.80;;;;;;;;;;4914396;29;20050;-74
2023/12/09 01:52:31;;;;;;;66.15;28.00;;;;;;;;;;4912794;29;20488;-74
2023/12/09 01:54:58;;;;;;;72.32;25.50;;;;;;;;;;4914312;29;20043;-74
2023/12/09 01:57:24;;;;;;;58.58;23.67;;;;;;;;;;4915827;29;20134;-74
2023/12/09 01:59:50;;;;;;;68.03;25.77;;;;;;;;;;4914679;29;20118;-74
2023/12/09 02:02:16;;;;;;;62.13;25.38;;;;;;;;;;4906652;29;20056;-75
2023/12/09 02:04:42;;;;;;;61.22;27.27;;;;;;;;;;4913708;29;20556;-75
2023/12/09 02:07:08;;;;;;;69.05;25.98;;;;;;;;;;4916677;29;20126;-75
2023/12/09 02:09:37;;;;;;;73.00;26.50;;;;;;;;;;4908695;29;20055;-74
2023/12/09 02:12:10;;;;;;;64.03;24.35;;;;;;;;;;4912211;29;20059;-75
2023/12/09 02:14:45;;;;;;;56.17;24.27;;;;;;;;;;4912916;29;20048;-74
2023/12/09 02:17:22;;;;;;;60.33;24.67;;;;;;;;;;4899342;29;20056;-74
2023/12/09 02:19:48;;;;;;;61.50;24.35;;;;;;;;;;4931370;29;20048;-75
2023/12/09 02:22:15;;;;;;;72.00;26.80;;;;;;;;;;4933600;29;20053;-75
2023/12/09 02:24:41;;;;;;;63.90;24.13;;;;;;;;;;4909367;29;20054;-75
2023/12/09 02:27:15;;;;;;;60.10;24.98;;;;;;;;;;4916674;29;20089;-75
2023/12/09 02:29:44;;;;;;;54.22;24.20;;;;;;;;;;4908225;29;20062;-75
2023/12/09 02:32:11;;;;;;;63.75;24.83;;;;;;;;;;4917107;29;20163;-75
2023/12/09 02:34:38;;;;;;;58.67;23.25;;;;;;;;;;4917501;29;20122;-75
2023/12/09 02:37:05;;;;;;;58.65;22.75;;;;;;;;;;4915240;29;20445;-75
2023/12/09 02:39:31;;;;;;;51.78;21.38;;;;;;;;;;4911586;29;20047;-75
2023/12/09 02:41:58;;;;;;;60.88;23.73;;;;;;;;;;4917060;29;20143;-74
2023/12/09 02:44:24;;;;;;;64.53;23.15;;;;;;;;;;4908538;29;20108;-74
2023/12/09 02:46:57;;;;;;;56.22;23.30;;;;;;;;;;4911791;29;20071;-74
2023/12/09 02:49:26;;;;;;;58.45;21.20;;;;;;;;;;4905766;29;20408;-75
2023/12/09 02:51:52;;;;;;;60.67;23.95;;;;;;;;;;4905612;29;20051;-75
2023/12/09 02:54:18;;;;;;;61.25;23.30;;;;;;;;;;4916621;29;20053;-74
2023/12/09 02:56:44;;;;;;;58.05;22.98;;;;;;;;;;4900069;29;20051;-75
2023/12/09 02:59:10;;;;;;;64.05;23.35;;;;;;;;;;4911315;29;20482;-74
2023/12/09 03:01:36;;;;;;;51.22;21.70;;;;;;;;;;4916319;29;20075;-74
2023/12/09 03:04:02;;;;;;;57.20;22.13;;;;;;;;;;4915549;29;20138;-75
2023/12/09 03:06:29;;;;;;;62.28;22.52;;;;;;;;;;4927771;29;20122;-75
2023/12/09 03:08:55;;;;;;;56.38;23.25;;;;;;;;;;4913275;29;20051;-75
2023/12/09 03:11:20;;;;;;;58.25;21.30;;;;;;;;;;4913349;29;20074;-74
2023/12/09 03:13:46;;;;;;;64.63;23.05;;;;;;;;;;4911330;29;20126;-75
2023/12/09 03:16:15;;;;;;;53.92;21.27;;;;;;;;;;4913132;29;20039;-75
2023/12/09 03:18:41;;;;;;;64.95;20.88;;;;;;;;;;4907157;29;20388;-74
2023/12/09 03:21:07;;;;;;;57.97;21.95;;;;;;;;;;4902980;29;20048;-75
2023/12/09 03:23:33;;;;;;;54.75;20.90;;;;;;;;;;4913246;29;20544;-75
2023/12/09 03:25:59;;;;;;;67.18;23.05;;;;;;;;;;4911113;29;20059;-74
2023/12/09 03:28:25;;;;;;;55.97;23.17;;;;;;;;;;4932164;29;20452;-75
2023/12/09 03:30:51;;;;;;;50.95;21.02;;;;;;;;;;4906082;29;20052;-74
2023/12/09 03:33:17;;;;;;;52.30;20.90;;;;;;;;;;4911367;29;20095;-75
2023/12/09 03:35:43;;;;;;;52.83;20.13;;;;;;;;;;4910445;29;20457;-75
2023/12/09 03:38:09;;;;;;;50.03;21.77;;;;;;;;;;4914708;29;20090;-75
2023/12/09 03:40:35;;;;;;;59.92;23.33;;;;;;;;;;4929040;29;20052;-74
2023/12/09 03:43:04;;;;;;;61.63;23.00;;;;;;;;;;4919713;29;20369;-75
2023/12/09 03:45:30;;;;;;;61.33;21.63;;;;;;;;;;4919242;29;20047;-75
2023/12/09 03:47:56;;;;;;;53.72;21.42;;;;;;;;;;4908733;29;20044;-75
2023/12/09 03:50:22;;;;;;;59.47;21.73;;;;;;;;;;4913479;29;20052;-74
2023/12/09 03:52:48;;;;;;;62.60;22.80;;;;;;;;;;4914744;29;20040;-74
2023/12/09 03:55:15;;;;;;;52.47;20.77;;;;;;;;;;4915064;29;20070;-75
2023/12/09 03:57:41;;;;;;;51.78;20.92;;;;;;;;;;4899758;29;20045;-74
2023/12/09 04:00:08;;;;;;;46.08;20.65;;;;;;;;;;4914205;29;20048;-75
2023/12/09 04:02:34;;;;;;;45.13;17.67;;;;;;;;;;4912090;29;20071;-75
2023/12/09 04:05:00;;;;;;;45.92;19.92;;;;;;;;;;4914658;29;20543;-75
2023/12/09 04:07:26;;;;;;;42.67;17.63;;;;;;;;;;4915444;29;20143;-75
2023/12/09 04:09:52;;;;;;;53.13;20.63;;;;;;;;;;4914348;29;20039;-75
2023/12/09 04:12:18;;;;;;;54.13;20.23;;;;;;;;;;4910634;29;20051;-75
2023/12/09 04:14:44;;;;;;;45.05;16.95;;;;;;;;;;4914506;29;20381;-75
2023/12/09 04:17:10;;;;;;;52.90;19.63;;;;;;;;;;4915177;29;20132;-75
2023/12/09 04:19:36;;;;;;;56.17;21.13;;;;;;;;;;4914684;29;20050;-75
2023/12/09 04:22:02;;;;;;;48.42;18.83;;;;;;;;;;4917295;29;20074;-75
2023/12/09 04:24:28;;;;;;;51.40;19.30;;;;;;;;;;4917158;29;20055;-75
2023/12/09 04:26:54;;;;;;;44.95;18.90;;;;;;;;;;4919400;29;20389;-75
2023/12/09 04:29:20;;;;;;;50.53;20.73;;;;;;;;;;4910005;29;20059;-75
2023/12/09 04:31:46;;;;;;;52.90;20.67;;;;;;;;;;4913831;29;20051;-75
2023/12/09 04:34:12;;;;;;;51.97;21.17;;;;;;;;;;4915042;29;20044;-75
2023/12/09 04:36:38;;;;;;;58.92;22.50;;;;;;;;;;4931931;29;20505;-75
2023/12/09 04:39:07;;;;;;;49.00;21.10;;;;;;;;;;4916643;29;20060;-75
2023/12/09 04:41:36;;;;;;;51.08;20.35;;;;;;;;;;4914660;29;20507;-75
2023/12/09 04:44:02;;;;;;;48.28;19.17;;;;;;;;;;4931771;29;20456;-75
2023/12/09 04:46:35;;;;;;;58.38;21.35;;;;;;;;;;4934789;29;20043;-75
2023/12/09 04:49:01;;;;;;;49.97;21.35;;;;;;;;;;4916509;29;20126;-75
2023/12/09 04:51:27;;;;;;;51.58;21.17;;;;;;;;;;4916138;29;20079;-75
2023/12/09 04:53:53;;;;;;;45.97;20.75;;;;;;;;;;4913432;29;20115;-75
2023/12/09 04:56:19;;;;;;;54.67;20.92;;;;;;;;;;4918578;29;20056;-75
2023/12/09 04:58:45;;;;;;;48.53;19.73;;;;;;;;;;4914710;29;20043;-75
2023/12/09 05:01:11;;;;;;;41.05;17.58;;;;;;;;;;4913054;29;20063;-75
2023/12/09 05:03:37;;;;;;;46.25;19.75;;;;;;;;;;4910733;29;20051;-76
2023/12/09 05:06:04;;;;;;;39.85;19.15;;;;;;;;;;4903988;29;20055;-75
2023/12/09 05:08:30;;;;;;;53.90;20.52;;;;;;;;;;4916155;29;20056;-75
2023/12/09 05:10:56;;;;;;;45.78;18.90;;;;;;;;;;4916781;29;20052;-75
2023/12/09 05:13:22;;;;;;;43.97;18.55;;;;;;;;;;4917415;29;20437;-75
2023/12/09 05:15:48;;;;;;;42.33;16.58;;;;;;;;;;4915247;29;20047;-75
2023/12/09 05:18:14;;;;;;;48.60;17.50;;;;;;;;;;4915920;29;20047;-75
2023/12/09 05:20:41;;;;;;;51.45;19.30;;;;;;;;;;4916714;29;20107;-75
2023/12/09 05:23:07;;;;;;;40.53;15.98;;;;;;;;;;4916470;29;20059;-75
2023/12/09 05:25:33;;;;;;;49.05;18.30;;;;;;;;;;4915193;29;20089;-75
2023/12/09 05:28:00;;;;;;;41.78;16.48;;;;;;;;;;4916976;29;20453;-75
2023/12/09 05:30:27;;;;;;;41.88;15.73;;;;;;;;;;4911961;29;20083;-75
2023/12/09 05:32:53;;;;;;;45.35;15.93;;;;;;;;;;4912183;29;20548;-75
2023/12/09 05:35:19;;;;;;;37.78;15.93;;;;;;;;;;4915912;29;20550;-75
2023/12/09 05:37:45;;;;;;;42.97;15.50;;;;;;;;;;4915122;29;20085;-75
2023/12/09 05:40:14;;;;;;;43.42;17.30;;;;;;;;;;4916863;29;20051;-75
2023/12/09 05:42:40;;;;;;;36.25;15.88;;;;;;;;;;4916025;29;20082;-75
2023/12/09 05:45:07;;;;;;;30.05;13.25;;;;;;;;;;4913171;29;20052;-75
2023/12/09 05:47:33;;;;;;;32.45;13.43;;;;;;;;;;4913608;29;20669;-75
2023/12/09 05:49:59;;;;;;;42.92;14.73;;;;;;;;;;4915637;29;20147;-75
2023/12/09 05:52:25;;;;;;;39.60;14.93;;;;;;;;;;4915128;29;20130;-75
2023/12/09 05:54:51;;;;;;;44.45;16.88;;;;;;;;;;4914189;29;20138;-75
2023/12/09 05:57:17;;;;;;;36.50;15.50;;;;;;;;;;4908777;29;20146;-75
2023/12/09 05:59:43;;;;;;;38.25;15.20;;;;;;;;;;4918014;29;20039;-75
2023/12/09 06:02:09;;;;;;;37.03;14.23;;;;;;;;;;4932098;29;20082;-75
2023/12/09 06:04:35;;;;;;;41.25;16.25;;;;;;;;;;4915042;29;20104;-75
2023/12/09 06:07:01;;;;;;;35.47;13.77;;;;;;;;;;4898868;29;20468;-75
2023/12/09 06:09:27;;;;;;;40.35;16.02;;;;;;;;;;4915465;29;20465;-75
2023/12/09 06:11:54;;;;;;;46.08;15.73;;;;;;;;;;4917927;29;20047;-75
2023/12/09 06:14:20;;;;;;;39.13;14.02;;;;;;;;;;4908706;29;20428;-75
2023/12/09 06:16:46;;;;;;;40.58;14.63;;;;;;;;;;4917667;29;20056;-75
2023/12/09 06:19:12;;;;;;;37.45;15.82;;;;;;;;;;4916495;29;20126;-75
2023/12/09 06:21:38;;;;;;;41.83;16.38;;;;;;;;;;4904035;29;20051;-75
2023/12/09 06:24:04;;;;;;;30.65;14.38;;;;;;;;;;4916691;29;20079;-75
2023/12/09 06:26:30;;;;;;;40.38;14.45;;;;;;;;;;4917470;29;20047;-75
2023/12/09 06:28:56;;;;;;;41.45;15.55;;;;;;;;;;4917046;29;20075;-75
2023/12/09 06:31:22;;;;;;;38.90;15.23;;;;;;;;;;4909043;29;20507;-75
2023/12/09 06:33:48;;;;;;;33.00;15.13;;;;;;;;;;4907458;29;20044;-75
2023/12/09 06:36:14;;;;;;;47.22;17.60;;;;;;;;;;4914963;29;20047;-75
2023/12/09 06:38:40;;;;;;;39.08;16.50;;;;;;;;;;4914374;29;20378;-75
2023/12/09 06:41:07;;;;;;;44.80;17.33;;;;;;;;;;4922423;29;20528;-75
2023/12/09 06:43:33;;;;;;;47.30;18.60;;;;;;;;;;4911693;29;20534;-75
2023/12/09 06:46:00;;;;;;;38.22;15.82;;;;;;;;;;4915857;29;20130;-75
2023/12/09 06:48:27;;;;;;;51.70;20.17;;;;;;;;;;4915971;29;20059;-75
2023/12/09 06:50:53;;;;;;;46.50;18.35;;;;;;;;;;4913838;29;20052;-75
2023/12/09 06:53:19;;;;;;;51.75;20.50;;;;;;;;;;4913092;29;20083;-75
2023/12/09 06:55:45;;;;;;;40.47;18.80;;;;;;;;;;4911352;29;20131;-75
2023/12/09 06:58:11;;;;;;;48.30;20.50;;;;;;;;;;4909345;29;20782;-75
2023/12/09 07:00:37;;;;;;;48.22;20.92;;;;;;;;;;4904699;29;20059;-75
2023/12/09 07:03:04;;;;;;;43.92;19.52;;;;;;;;;;4914431;29;20477;-75
2023/12/09 07:05:32;;;;;;;52.53;20.52;;;;;;;;;;4915198;29;20593;-75
2023/12/09 07:07:58;;;;;;;56.53;20.33;;;;;;;;;;4905577;29;20405;-75
2023/12/09 07:10:24;;;;;;;48.63;20.70;;;;;;;;;;4905245;29;20051;-75
2023/12/09 07:12:50;;;;;;;46.80;20.48;;;;;;;;;;4912693;29;20043;-75
2023/12/09 07:15:16;;;;;;;47.65;17.75;;;;;;;;;;4915798;29;20052;-75
2023/12/09 07:17:42;;;;;;;49.20;19.40;;;;;;;;;;4910608;29;20052;-75
2023/12/09 07:20:09;;;;;;;47.63;19.23;;;;;;;;;;4930937;29;20104;-75
2023/12/09 07:22:35;;;;;;;45.83;19.95;;;;;;;;;;4915954;29;20059;-75
2023/12/09 07:25:01;;;;;;;50.05;18.80;;;;;;;;;;4908087;29;20122;-75
2023/12/09 07:27:27;;;;;;;46.75;17.80;;;;;;;;;;4912292;29;20044;-75
2023/12/09 07:29:53;;;;;;;42.42;18.95;;;;;;;;;;4913821;29;20070;-75
2023/12/09 07:32:22;;;;;;;41.50;17.20;;;;;;;;;;4913705;29;20115;-75
2023/12/09 07:34:48;;;;;;;42.05;18.05;;;;;;;;;;4915569;29;20131;-75
2023/12/09 07:37:14;;;;;;;46.25;18.52;;;;;;;;;;4913849;29;20139;-75
2023/12/09 07:39:40;;;;;;;53.28;23.25;;;;;;;;;;4901583;29;20047;-75
2023/12/09 07:42:06;;;;;;;50.88;22.88;;;;;;;;;;4912581;29;20571;-75
2023/12/09 07:44:32;;;;;;;50.40;22.67;;;;;;;;;;4913606;29;20147;-75
2023/12/09 07:46:58;;;;;;;47.03;21.67;;;;;;;;;;4928449;29;20127;-75
2023/12/09 07:49:24;;;;;;;39.03;17.95;;;;;;;;;;4909295;29;20051;-75
2023/12/09 07:51:51;;;;;;;36.95;16.85;;;;;;;;;;4914782;29;20091;-75
2023/12/09 07:54:17;;;;;;;42.60;18.00;;;;;;;;;;4928911;29;20079;-75
2023/12/09 07:56:43;;;;;;;38.92;17.65;;;;;;;;;;4932635;29;20081;-75
2023/12/09 07:59:09;;;;;;;41.95;18.02;;;;;;;;;;4926241;29;20036;-74
2023/12/09 08:01:36;;;;;;;39.28;17.60;;;;;;;;;;4914501;29;20115;-75
2023/12/09 08:04:02;;;;;;;43.38;17.80;;;;;;;;;;4914981;29;20720;-75
2023/12/09 08:06:28;;;;;;;40.35;16.65;;;;;;;;;;4917921;29;20039;-75
2023/12/09 08:08:54;;;;;;;37.72;14.45;;;;;;;;;;4918701;29;20048;-75
2023/12/09 08:11:20;;;;;;;39.80;14.95;;;;;;;;;;4932235;29;20070;-75
2023/12/09 08:13:46;;;;;;;39.95;17.67;;;;;;;;;;4933132;29;20051;-75
2023/12/09 08:16:13;;;;;;;37.33;17.50;;;;;;;;;;4929368;29;20043;-75
2023/12/09 08:18:39;;;;;;;44.95;17.70;;;;;;;;;;4930160;29;20054;-75
2023/12/09 08:21:05;;;;;;;47.15;18.02;;;;;;;;;;4903834;29;20400;-74
2023/12/09 08:23:31;;;;;;;35.20;15.85;;;;;;;;;;4936192;29;20043;-75
2023/12/09 08:25:57;;;;;;;52.10;20.45;;;;;;;;;;4916119;29;21259;-75
2023/12/09 08:28:27;;;;;;;43.03;18.45;;;;;;;;;;4927648;29;20126;-75
2023/12/09 08:30:53;;;;;;;47.58;19.73;;;;;;;;;;4916607;29;20083;-76
2023/12/09 08:33:19;;;;;;;49.22;18.63;;;;;;;;;;4919154;29;20058;-75
2023/12/09 08:35:48;;;;;;;44.33;18.67;;;;;;;;;;4916886;29;20407;-75
2023/12/09 08:38:14;;;;;;;47.33;18.55;;;;;;;;;;4915569;29;20052;-75
2023/12/09 08:40:40;;;;;;;44.80;19.77;;;;;;;;;;4917752;29;20491;-75
2023/12/09 08:43:06;;;;;;;43.10;18.38;;;;;;;;;;4932465;29;20091;-76
2023/12/09 08:45:36;;;;;;;44.78;19.70;;;;;;;;;;4934560;29;20127;-73
2023/12/09 08:48:02;;;;;;;42.75;18.73;;;;;;;;;;4931590;29;20095;-75
2023/12/09 08:50:28;;;;;;;36.92;15.95;;;;;;;;;;4915894;29;20051;-75
2023/12/09 08:52:54;;;;;;;48.13;19.13;;;;;;;;;;4924504;29;20044;-75
2023/12/09 08:55:21;;;;;;;45.28;19.25;;;;;;;;;;4915890;29;20130;-75
2023/12/09 08:57:48;;;;;;;46.75;18.50;;;;;;;;;;4915702;29;21208;-75
2023/12/09 09:00:18;;;;;;;34.80;16.15;;;;;;;;;;4911196;29;20470;-75
2023/12/09 09:02:44;;;;;;;44.17;18.05;;;;;;;;;;4917491;29;20062;-76
2023/12/09 09:05:10;;;;;;;39.42;18.33;;;;;;;;;;4915890;29;20415;-75
2023/12/09 09:07:40;;;;;;;39.08;17.58;;;;;;;;;;4917017;29;20067;-76
2023/12/09 09:10:07;;;;;;;41.15;16.02;;;;;;;;;;4919019;29;20090;-76
2023/12/09 09:12:33;;;;;;;41.67;18.00;;;;;;;;;;4930208;29;20043;-75
2023/12/09 09:14:59;;;;;;;40.85;16.95;;;;;;;;;;4914125;29;20512;-76
2023/12/09 09:17:25;;;;;;;39.38;16.88;;;;;;;;;;4917340;29;20408;-76
2023/12/09 09:19:51;;;;;;;37.78;15.50;;;;;;;;;;4911670;29;20053;-75
2023/12/09 09:22:17;;;;;;;32.95;16.27;;;;;;;;;;4917838;29;20047;-76
2023/12/09 09:24:43;;;;;;;46.35;17.55;;;;;;;;;;4917120;29;20069;-75
2023/12/09 09:27:09;;;;;;;33.00;16.02;;;;;;;;;;4913741;29;20059;-75
2023/12/09 09:29:35;;;;;;;40.25;16.08;;;;;;;;;;4917540;29;20058;-75
2023/12/09 09:32:01;;;;;;;43.03;18.70;;;;;;;;;;4926319;29;20719;-75
2023/12/09 09:34:27;;;;;;;42.28;17.35;;;;;;;;;;4916977;29;20044;-76
2023/12/09 09:36:53;;;;;;;34.33;16.58;;;;;;;;;;4916687;29;20589;-75
2023/12/09 09:39:19;;;;;;;42.33;18.50;;;;;;;;;;4912020;29;20051;-75
2023/12/09 09:41:59;;;;;;;39.90;16.30;;;;;;;;;;4906179;29;20055;-75
2023/12/09 09:44:27;;;;;;;28.13;14.95;;;;;;;;;;4930100;29;20047;-75
2023/12/09 09:46:56;;;;;;;37.28;14.60;;;;;;;;;;4912911;29;20484;-75
2023/12/09 09:49:24;;;;;;;36.92;15.38;;;;;;;;;;4912240;29;20500;-76
2023/12/09 09:51:52;;;;;;;37.03;14.23;;;;;;;;;;4934426;29;20102;-76
2023/12/09 09:54:21;;;;;;;37.90;15.98;;;;;;;;;;4904972;29;20090;-75
2023/12/09 09:56:49;;;;;;;36.30;15.02;;;;;;;;;;4921016;29;20058;-75
2023/12/09 09:59:15;;;;;;;40.33;15.52;;;;;;;;;;4919931;29;20472;-76
2023/12/09 10:01:41;;;;;;;31.88;15.13;;;;;;;;;;4917669;29;20079;-75
2023/12/09 10:04:07;;;;;;;32.80;14.65;;;;;;;;;;4934091;29;20055;-76
2023/12/09 10:06:34;;;;;;;33.53;16.67;;;;;;;;;;4924925;29;20056;-75
2023/12/09 10:09:00;;;;;;;30.98;16.00;;;;;;;;;;4930511;29;20052;-75
2023/12/09 10:11:26;;;;;;;34.25;13.75;;;;;;;;;;4916135;29;20556;-75
2023/12/09 10:13:52;;;;;;;34.45;13.70;;;;;;;;;;4926791;29;20040;-76
2023/12/09 10:16:18;;;;;;;29.08;12.68;;;;;;;;;;4912258;29;20292;-76
2023/12/09 10:18:48;;;;;;;37.80;14.30;;;;;;;;;;4905311;29;20067;-76
2023/12/09 10:21:15;;;;;;;29.85;13.82;;;;;;;;;;4907208;29;20135;-78
2023/12/09 10:23:41;;;;;;;33.70;13.35;;;;;;;;;;4918077;29;20151;-77
2023/12/09 10:26:10;;;;;;;28.92;13.30;;;;;;;;;;4911634;29;20102;-75
2023/12/09 10:28:36;;;;;;;25.13;11.73;;;;;;;;;;4908100;29;20110;-75
2023/12/09 10:31:03;;;;;;;31.55;12.10;;;;;;;;;;4911839;29;20062;-77
2023/12/09 10:33:30;;;;;;;25.88;11.93;;;;;;;;;;4806415;29;20110;-75
2023/12/09 10:35:57;;;;;;;34.03;13.40;;;;;;;;;;4858387;29;20056;-75
2023/12/09 10:38:23;;;;;;;24.23;10.90;;;;;;;;;;4891912;29;20136;-74
2023/12/09 10:40:49;;;;;;;28.45;10.63;;;;;;;;;;4862910;29;20668;-75
2023/12/09 10:43:15;;;;;;;25.58;10.63;;;;;;;;;;4841113;29;20498;-76
2023/12/09 10:45:44;;;;;;;27.13;11.00;;;;;;;;;;4852231;29;20056;-76
2023/12/09 10:48:10;;;;;;;33.63;10.20;;;;;;;;;;4854837;29;20045;-76
2023/12/09 10:50:39;;;;;;;25.73;10.00;;;;;;;;;;4866078;29;20045;-75
2023/12/09 10:53:06;;;;;;;26.75;10.88;;;;;;;;;;4865560;29;20075;-75
2023/12/09 10:55:32;;;;;;;23.23;9.23;;;;;;;;;;4865326;29;20049;-75
2023/12/09 10:57:59;;;;;;;26.02;10.20;;;;;;;;;;4865381;29;20132;-75
2023/12/09 11:00:26;;;;;;;20.63;9.98;;;;;;;;;;4858633;29;20149;-75
2023/12/09 11:02:56;;;;;;;23.92;9.52;;;;;;;;;;4861847;29;20084;-75
2023/12/09 11:05:22;;;;;;;24.98;9.82;;;;;;;;;;4874005;29;20099;-75
2023/12/09 11:07:49;;;;;;;21.58;8.20;;;;;;;;;;4844808;29;20059;-75
2023/12/09 11:10:15;;;;;;;27.10;9.15;;;;;;;;;;4847899;29;20041;-75
2023/12/09 11:12:44;;;;;;;24.10;8.50;;;;;;;;;;4852541;29;20096;-75
2023/12/09 11:15:10;;;;;;;20.25;8.00;;;;;;;;;;4850999;29;20124;-75
2023/12/09 11:17:38;;;;;;;27.00;12.52;;;;;;;;;;4853332;29;20052;-75
2023/12/09 11:20:14;;;;;;;40.42;18.50;;;;;;;;;;4849802;29;20046;-75
2023/12/09 11:22:41;;;;;;;72.70;32.08;;;;;;;;;;4848952;29;20044;-75
2023/12/09 11:25:08;;;;;;;31.75;13.95;;;;;;;;;;4850651;29;20101;-75
2023/12/09 11:27:35;;;;;;;29.90;12.48;;;;;;;;;;4852738;29;20048;-75
2023/12/09 11:30:01;;;;;;;23.98;10.68;;;;;;;;;;4855324;29;20044;-75
2023/12/09 11:32:29;;;;;;;20.00;8.05;;;;;;;;;;4848019;29;20057;-75
2023/12/09 11:34:57;;;;;;;24.08;9.50;;;;;;;;;;4851139;29;20137;-75
2023/12/09 11:37:24;;;;;;;21.92;8.13;;;;;;;;;;4863442;29;20056;-74
2023/12/09 11:39:51;;;;;;;16.13;7.43;;;;;;;;;;4859094;29;20162;-75
2023/12/09 11:42:18;;;;;;;22.75;8.65;;;;;;;;;;4856228;29;20044;-74
2023/12/09 11:44:46;;;;;;;17.10;8.38;;;;;;;;;;4841473;29;20132;-75
2023/12/09 11:47:13;;;;;;;18.60;8.02;;;;;;;;;;4850223;29;20077;-75
2023/12/09 11:49:39;;;;;;;18.27;8.00;;;;;;;;;;4853003;29;20414;-75
2023/12/09 11:52:05;;;;;;;24.67;8.90;;;;;;;;;;4850304;29;20048;-75
2023/12/09 11:54:31;;;;;;;20.95;8.20;;;;;;;;;;4854065;29;20084;-75
2023/12/09 11:56:57;;;;;;;16.98;8.20;;;;;;;;;;4852104;29;20060;-75
2023/12/09 11:59:23;;;;;;;20.27;7.05;;;;;;;;;;4850982;29;20053;-75
2023/12/09 12:01:49;;;;;;;15.18;6.95;;;;;;;;;;4851914;29;20076;-75
2023/12/09 12:04:15;;;;;;;16.55;6.55;;;;;;;;;;4852750;29;20061;-75
2023/12/09 12:06:41;;;;;;;19.17;7.53;;;;;;;;;;4846305;29;20099;-75
2023/12/09 12:09:10;;;;;;;16.17;7.50;;;;;;;;;;4851904;29;20072;-75
2023/12/09 12:11:36;;;;;;;17.00;7.30;;;;;;;;;;4854580;29;20064;-75
2023/12/09 12:14:04;;;;;;;18.40;6.60;;;;;;;;;;4853809;29;20053;-75
2023/12/09 12:16:30;;;;;;;22.10;6.47;;;;;;;;;;4850811;29;20096;-78
2023/12/09 12:18:56;;;;;;;17.25;7.07;;;;;;;;;;4851135;29;20041;-76
2023/12/09 12:21:22;;;;;;;19.83;6.82;;;;;;;;;;4853078;29;20053;-75
2023/12/09 12:23:52;;;;;;;16.58;6.63;;;;;;;;;;4850795;29;20413;-75
2023/12/09 12:26:18;;;;;;;18.13;6.38;;;;;;;;;;4858887;29;20096;-75
2023/12/09 12:28:49;;;;;;;31.10;16.30;;;;;;;;;;4843279;29;20049;-75
2023/12/09 12:31:15;;;;;;;26.65;11.45;;;;;;;;;;4849485;29;20128;-75
2023/12/09 12:33:41;;;;;;;17.48;7.57;;;;;;;;;;4858435;29;20110;-75
2023/12/09 12:36:08;;;;;;;15.65;6.88;;;;;;;;;;4842534;29;20063;-75
2023/12/09 12:38:34;;;;;;;17.70;7.05;;;;;;;;;;4847758;29;20053;-75
2023/12/09 12:41:02;;;;;;;12.60;5.88;;;;;;;;;;4844364;29;20051;-76
2023/12/09 12:43:30;;;;;;;14.85;6.47;;;;;;;;;;4841268;29;20053;-75
2023/12/09 12:45:57;;;;;;;13.27;5.75;;;;;;;;;;4860168;29;20066;-75
2023/12/09 12:48:24;;;;;;;13.65;6.45;;;;;;;;;;4847402;29;20064;-75
2023/12/09 12:50:50;;;;;;;19.00;6.30;;;;;;;;;;4863111;29;20521;-75
2023/12/09 12:53:18;;;;;;;18.27;7.07;;;;;;;;;;4862049;29;20107;-75
2023/12/09 12:55:44;;;;;;;17.23;6.60;;;;;;;;;;4843429;29;20080;-75
2023/12/09 12:58:10;;;;;;;19.48;6.68;;;;;;;;;;4852862;29;20059;-76
2023/12/09 13:00:36;;;;;;;17.25;7.05;;;;;;;;;;4850956;29;20460;-76
2023/12/09 13:03:04;;;;;;;16.17;6.97;;;;;;;;;;4868760;29;20051;-76
2023/12/09 13:05:31;;;;;;;15.55;6.82;;;;;;;;;;4861501;29;20077;-76
2023/12/09 13:07:57;;;;;;;15.13;6.10;;;;;;;;;;4868004;29;20056;-75
2023/12/09 13:10:23;;;;;;;16.60;8.00;;;;;;;;;;4848857;29;20053;-75
2023/12/09 13:12:49;;;;;;;11.32;5.53;;;;;;;;;;4867292;29;20063;-76
2023/12/09 13:15:16;;;;;;;18.73;5.93;;;;;;;;;;4849271;29;20049;-75
2023/12/09 13:17:42;;;;;;;14.52;5.65;;;;;;;;;;4854302;29;20050;-75
2023/12/09 13:20:09;;;;;;;31.75;17.88;;;;;;;;;;4860895;29;20065;-76
2023/12/09 13:22:36;;;;;;;38.58;22.77;;;;;;;;;;4856064;29;20060;-76
2023/12/09 13:25:03;;;;;;;18.48;7.32;;;;;;;;;;4846436;29;20460;-76
2023/12/09 13:27:30;;;;;;;18.48;8.18;;;;;;;;;;4878428;29;20064;-76
2023/12/09 13:29:56;;;;;;;14.90;8.10;;;;;;;;;;4851846;29;20106;-76
2023/12/09 13:32:22;;;;;;;17.38;10.38;;;;;;;;;;4848085;29;20049;-76
2023/12/09 13:34:48;;;;;;;18.83;7.93;;;;;;;;;;4860618;29;20383;-76
2023/12/09 13:37:14;;;;;;;11.68;6.05;;;;;;;;;;4851082;29;20052;-75
2023/12/09 13:39:40;;;;;;;15.18;5.47;;;;;;;;;;4836184;29;20468;-76
2023/12/09 13:42:07;;;;;;;19.15;5.95;;;;;;;;;;4846839;29;20119;-75
2023/12/09 13:44:33;;;;;;;13.23;5.20;;;;;;;;;;4858221;29;20495;-76
2023/12/09 13:46:59;;;;;;;12.68;5.43;;;;;;;;;;4853211;29;20057;-76
2023/12/09 13:49:25;;;;;;;11.85;5.88;;;;;;;;;;4863262;29;20068;-76
2023/12/09 13:51:51;;;;;;;16.48;5.15;;;;;;;;;;4850409;29;20064;-75
2023/12/09 13:54:20;;;;;;;10.20;5.30;;;;;;;;;;4850717;29;20109;-75
2023/12/09 13:56:46;;;;;;;11.52;5.65;;;;;;;;;;4843617;29;20050;-75
2023/12/09 13:59:12;;;;;;;13.48;5.22;;;;;;;;;;4842447;29;20486;-75
2023/12/09 14:01:38;;;;;;;14.95;8.95;;;;;;;;;;4866654;29;20372;-75
2023/12/09 14:04:05;;;;;;;16.38;7.00;;;;;;;;;;4848773;29;20058;-75
2023/12/09 14:06:31;;;;;;;27.45;11.98;;;;;;;;;;4853303;29;20067;-75
2023/12/09 14:08:57;;;;;;;27.25;11.98;;;;;;;;;;4846541;29;20041;-75
2023/12/09 14:11:27;;;;;;;31.38;15.60;;;;;;;;;;4851017;29;20049;-75
2023/12/09 14:13:54;;;;;;;27.88;14.07;;;;;;;;;;4856407;29;20049;-75